Flight Track Log - Related Links

Times and Time Zones

All times are in EDT time to prevent confusion due to time zone crossing. See the SWA268 flight status page for this flight to view local times or setup timezone preferences in your user account.

Time Position Orientation Groundspeed Altitude Reporting Facility
EDT Latitude Longitude Course Direction KTS MPH feet Rate Location/Type
10:58AM 37.4000 -121.9667 141° Southeast 176 203 2,600  Level Northern Cal TRACON
10:59AM 37.4333 -121.9667 360° North 220 253 4,900 1,474 Climbing Northern Cal TRACON
11:00AM 37.4167 -121.9000 107° East 221 254 5,400 1,579 Climbing Northern Cal TRACON
11:01AM 37.3833 -121.8333 122° Southeast 269 310 7,900 2,894 Climbing Northern Cal TRACON
11:02AM 37.3472 -121.8117 154° Southeast 288 331 9,500 3,261 Climbing Oakland Center
11:03AM 37.2842 -121.7400 138° Southeast 322 371 12,900 3,512 Climbing Oakland Center
11:04AM 36.7496 -121.1496 141° Southeast  Level FlightAware Approximate
11:04AM 37.2083 -121.6517 137° Southeast 365 420 16,700  Level Oakland Center
11:05AM 37.1283 -121.5617 138° Southeast 383 441 19,600 3,098 Climbing Oakland Center
11:06AM 37.0372 -121.4636 139° Southeast 399 459 23,000 3,098 Climbing Oakland Center
11:07AM 36.9481 -121.3686 140° Southeast 419 482 25,900 2,656 Climbing Oakland Center
11:08AM 36.8567 -121.2681 139° Southeast 434 499 28,400 2,293 Climbing Oakland Center
11:09AM 36.7586 -121.1656 140° Southeast 447 514 30,600 2,341 Climbing Oakland Center
11:10AM 36.6417 -121.0386 139° Southeast 460 529 33,200 2,410 Climbing Oakland Center
11:11AM 36.5433 -120.9319 139° Southeast 465 535 35,500 1,918 Climbing Oakland Center
11:12AM 36.4472 -120.8286 139° Southeast 460 529 37,100 1,525 Climbing Oakland Center
11:13AM 36.3483 -120.7208 139° Southeast 468 539 38,600 934 Climbing Oakland Center
11:14AM 36.2506 -120.6172 139° Southeast 467 537 39,000 195 Climbing Oakland Center
11:15AM 36.1542 -120.5158 140° Southeast 455 524 39,000  Level Oakland Center
11:16AM 36.0592 -120.4128 139° Southeast 455 524 39,000  Level Oakland Center
11:17AM 35.9622 -120.3111 140° Southeast 454 522 39,000  Level Oakland Center
11:18AM 35.8664 -120.2094 139° Southeast 454 522 39,000  Level Oakland Center
11:19AM 35.7697 -120.1075 139° Southeast 454 522 39,000  Level Oakland Center
11:20AM 35.6733 -120.0053 139° Southeast 454 522 39,000  Level Oakland Center
11:21AM 35.5700 -119.9106 143° Southeast 454 522 39,000  Level Oakland Center
11:22AM 35.4633 -119.8189 145° Southeast 459 528 39,000 -683 Level Oakland Center
11:23AM 35.3572 -119.7272 145° Southeast 460 529 37,600 -1,707 Descending Oakland Center
11:24AM 35.2303 -119.6178 145° Southeast 461 531 35,500 -1,925 Descending Oakland Center
11:25AM 35.1011 -119.5092 145° Southeast 465 535 33,300 -2,533 Descending Los Angeles Center
11:26AM 34.9958 -119.4175 144° Southeast 465 535 29,800 -2,758 Descending Los Angeles Center
11:27AM 34.8889 -119.3292 146° Southeast 465 535 27,600 -2,016 Descending Los Angeles Center
11:28AM 34.7892 -119.2442 145° Southeast 446 513 25,600 -1,536 Descending Los Angeles Center
11:30AM 34.6917 -119.1625 145° Southeast 431 496 24,400 -2,000 Descending Los Angeles Center
11:31AM 34.5333 -119.0333 144° Southeast 410 472 20,500 -2,274 Descending Southern California TRACON
11:32AM 34.4944 -118.9967 140° Southeast 408 470 19,700 -1,958 Descending Los Angeles Center
11:33AM 34.4042 -118.9222 146° Southeast 395 455 17,400 -2,371 Descending Los Angeles Center
11:34AM 34.3773 -118.8939 140° Southeast  Level FlightAware Approximate
11:34AM 34.2908 -118.8575 155° Southeast 379 436 14,800  Level Los Angeles Center
11:35AM 34.1911 -118.8208 163° South 375 432 12,500 -1,742 Descending Los Angeles Center
11:36AM 34.0994 -118.7869 163° South 345 397 11,200 -1,161 Descending Los Angeles Center
11:37AM 34.0336 -118.7136 137° Southeast 313 360 10,100 -1,104 Descending Los Angeles Center
11:38AM 34.0253 -118.6167 96° East 292 336 8,900 -1,200 Descending Los Angeles Center
11:39AM 34.0150 -118.5103 97° East 295 339 7,600 -1,113 Descending Los Angeles Center
11:40AM 34.0142 -118.4150 91° East 283 326 6,600 -1,306 Descending Los Angeles Center
11:41AM 34.0250 -118.3214 82° East 280 322 4,900 -1,548 Descending Los Angeles Center
11:42AM 34.0344 -118.2217 83° East 280 322 3,400 -1,016 Descending Los Angeles Center
11:43AM 34.0378 -118.1411 87° East 272 313 2,800 -532 Descending Los Angeles Center
11:44AM 33.9867 -118.1422 181° South 241 277 2,300 -288 Descending Los Angeles Center
11:45AM 33.9722 -118.2092 255° West 220 253 2,200 -144 Descending Los Angeles Center
11:46AM 33.9642 -118.2906 263° West 212 244 2,000 -532 Descending Los Angeles Center
11:47AM 33.9583 -118.3467 263° West 187 215 1,100 -774 Descending Los Angeles Center
11:48AM 33.9539 -118.3928 263° West 155 178 400 -435 Descending Los Angeles Center
11:49AM 33.9475 -118.4375 260° West 152 175 200 -194 Descending Los Angeles Center
11:51AM 33.9425 -118.4081 90° East  Level Estimated

Login

Don't have an account? Register now (free) for customized features, flight alerts, and more!